Time;durP1;ratioP1;P1;durP2;ratioP2;P2;SDS_P1;SDS_P2;PMS_P1;PMS_P2;Temp;Humidity;BMP_temperature;BMP_pressure;BME280_temperature;BME280_humidity;BME280_pressure;Samples;Min_cycle;Max_cycle;Signal;HPM_P1;HPM_P2
2021/12/14 00:00:18;;;;;;;1999.90;999.90;;;;;;;10.59;81.30;102239.78;15777579;28;20078;-65
2021/12/14 00:08:02;;;;;;;1999.90;999.90;;;;;;;10.56;81.46;102232.00;15772159;28;20054;-65
2021/12/14 00:15:36;;;;;;;1999.90;999.90;;;;;;;10.59;79.94;102242.56;15757489;28;20045;-64
2021/12/14 00:31:17;;;;;;;1999.90;999.90;;;;;;;10.58;80.69;102240.91;15771576;28;20513;-64
2021/12/14 00:38:56;;;;;;;1999.90;999.90;;;;;;;10.76;79.58;102237.34;15766199;28;20397;-63
2021/12/14 00:46:33;;;;;;;1999.90;999.90;;;;;;;10.70;79.71;102233.78;15760945;28;20044;-64
2021/12/14 00:54:13;;;;;;;1999.90;999.90;;;;;;;10.65;79.11;102233.03;15776539;28;20059;-64
2021/12/14 01:01:51;;;;;;;1999.90;999.90;;;;;;;10.49;80.11;102237.09;15737063;28;20045;-64
2021/12/14 01:09:31;;;;;;;1999.90;999.90;;;;;;;10.57;79.87;102236.47;15765808;28;20123;-64
2021/12/14 01:17:11;;;;;;;1999.90;999.90;;;;;;;10.54;79.59;102234.28;15740017;28;20051;-64
2021/12/14 01:25:03;;;;;;;1999.90;999.90;;;;;;;10.59;79.35;102237.00;15771749;28;20040;-64
2021/12/14 01:32:40;;;;;;;1999.90;999.90;;;;;;;10.38;79.69;102226.03;15754774;28;20514;-64
2021/12/14 01:40:46;;;;;;;1999.90;999.90;;;;;;;10.60;78.66;102225.53;15746063;28;20044;-64
2021/12/14 01:48:13;;;;;;;1999.90;999.90;;;;;;;10.40;79.05;102218.19;15777434;28;20036;-63
2021/12/14 01:56:06;;;;;;;1999.90;999.90;;;;;;;10.50;78.62;102214.47;15760294;28;20055;-64
2021/12/14 02:03:43;;;;;;;1999.90;999.90;;;;;;;10.47;78.14;102215.06;15761652;28;20071;-64
2021/12/14 02:11:19;;;;;;;1999.90;999.90;;;;;;;10.40;78.33;102207.03;15769979;28;20040;-64
2021/12/14 02:18:57;;;;;;;1999.90;999.90;;;;;;;10.44;78.38;102201.72;15778704;28;20028;-64
2021/12/14 02:26:35;;;;;;;1999.90;999.90;;;;;;;10.35;78.70;102200.69;15749804;28;20048;-64
2021/12/14 02:34:09;;;;;;;1999.90;999.90;;;;;;;10.47;78.09;102200.28;15741548;28;20037;-64
2021/12/14 02:41:48;;;;;;;1999.90;999.90;;;;;;;10.44;78.28;102189.72;15758974;28;20408;-64
2021/12/14 02:49:25;;;;;;;1999.90;999.90;;;;;;;10.20;77.98;102189.66;15761705;28;20489;-65
2021/12/14 02:57:10;;;;;;;1999.90;999.90;;;;;;;10.42;77.76;102187.25;15736252;28;20139;-64
2021/12/14 03:04:50;;;;;;;1999.90;999.90;;;;;;;10.28;77.49;102173.13;15743446;28;20562;-65
2021/12/14 03:12:40;;;;;;;1999.90;999.90;;;;;;;10.39;77.12;102168.28;15743105;28;20400;-65
2021/12/14 03:20:19;;;;;;;1999.90;999.90;;;;;;;10.14;77.54;102166.56;15744046;28;20171;-63
2021/12/14 03:27:53;;;;;;;1999.90;999.90;;;;;;;10.08;77.71;102163.00;15735338;28;20067;-65
2021/12/14 03:35:44;;;;;;;1999.90;999.90;;;;;;;10.09;77.89;102164.66;15774143;28;20079;-63
2021/12/14 03:43:25;;;;;;;1999.90;999.90;;;;;;;10.12;77.65;102152.09;15779196;28;20048;-65
2021/12/14 03:51:01;;;;;;;1999.90;999.90;;;;;;;9.96;78.30;102143.03;15722543;28;20070;-63
2021/12/14 03:58:42;;;;;;;1999.90;999.90;;;;;;;10.02;78.03;102139.09;15748940;28;20062;-66
2021/12/14 04:06:20;;;;;;;1999.90;999.90;;;;;;;10.07;77.62;102127.03;15753854;28;20090;-66
2021/12/14 04:13:55;;;;;;;1999.90;999.90;;;;;;;9.97;77.63;102111.25;15736703;28;20032;-66
2021/12/14 04:21:52;;;;;;;1999.90;999.90;;;;;;;9.92;77.65;102090.97;15755119;28;20040;-64
2021/12/14 04:29:32;;;;;;;1999.90;999.90;;;;;;;10.00;77.11;102085.53;15739223;28;20201;-66
2021/12/14 04:37:14;;;;;;;1999.90;999.90;;;;;;;9.86;76.78;102073.44;15751553;28;20040;-64
2021/12/14 04:52:56;;;;;;;1999.90;999.90;;;;;;;9.78;77.10;102074.06;15767475;28;20047;-65
2021/12/14 05:00:34;;;;;;;1999.90;999.90;;;;;;;9.82;76.71;102073.22;15772415;28;20036;-65
2021/12/14 05:16:20;;;;;;;1999.90;999.90;;;;;;;9.96;76.39;102104.00;15766993;28;20036;-65
2021/12/14 05:24:22;;;;;;;1999.90;999.90;;;;;;;10.02;76.59;102111.19;15759455;28;20040;-63
2021/12/14 05:32:15;;;;;;;1999.90;999.90;;;;;;;9.89;76.76;102113.84;15737358;28;20455;-66
2021/12/14 05:40:02;;;;;;;1999.90;999.90;;;;;;;9.90;76.27;102116.34;15789121;28;20059;-65
2021/12/14 05:47:58;;;;;;;1999.90;999.90;;;;;;;9.94;76.59;102114.63;15772277;28;20048;-65
2021/12/14 05:55:41;;;;;;;1999.90;999.90;;;;;;;10.00;76.29;102118.19;15755774;28;20551;-64
2021/12/14 06:03:23;;;;;;;1999.90;999.90;;;;;;;9.90;76.78;102104.34;15755684;28;20052;-66
2021/12/14 06:10:59;;;;;;;1999.90;999.90;;;;;;;9.96;76.28;102117.94;15773889;28;20346;-65
2021/12/14 06:18:33;;;;;;;1999.90;999.90;;;;;;;9.85;76.46;102113.59;15749004;28;20090;-66
2021/12/14 06:26:13;;;;;;;1999.90;999.90;;;;;;;9.75;76.50;102100.59;15738542;28;20079;-65
2021/12/14 06:33:47;;;;;;;1999.90;999.90;;;;;;;9.79;76.27;102090.50;15761521;28;20043;-65
2021/12/14 06:41:22;;;;;;;1999.90;999.90;;;;;;;9.71;76.87;102087.56;15761679;28;20036;-66
2021/12/14 06:49:09;;;;;;;1999.90;999.90;;;;;;;9.83;76.51;102080.44;15765265;28;20538;-65
2021/12/14 06:56:43;;;;;;;1999.90;999.90;;;;;;;9.97;75.76;102080.56;15723463;28;20079;-65
2021/12/14 07:04:42;;;;;;;1999.90;999.90;;;;;;;9.94;76.47;102091.50;15739526;28;20394;-66
2021/12/14 07:12:20;;;;;;;1999.90;999.90;;;;;;;9.68;76.72;102077.81;15739615;28;20086;-66
2021/12/14 07:19:57;;;;;;;1999.90;999.90;;;;;;;9.78;76.48;102090.81;15763873;28;20535;-65
2021/12/14 07:27:30;;;;;;;1999.90;999.90;;;;;;;9.70;76.27;102106.25;15784495;28;20047;-65
2021/12/14 07:35:20;;;;;;;1999.90;999.90;;;;;;;9.82;76.85;102111.41;15797282;28;20063;-68
2021/12/14 07:43:09;;;;;;;1999.90;999.90;;;;;;;9.84;76.40;102112.78;15780126;28;20120;-66
2021/12/14 07:50:48;;;;;;;1999.90;999.90;;;;;;;9.82;76.24;102115.03;15748844;28;20047;-63
2021/12/14 07:58:31;;;;;;;1999.90;999.90;;;;;;;9.91;76.04;102126.38;15771746;28;20052;-57
2021/12/14 08:06:07;;;;;;;1999.90;999.90;;;;;;;9.75;76.74;102134.06;15757276;28;20546;-61
2021/12/14 08:13:46;;;;;;;1999.90;999.90;;;;;;;9.83;76.08;102125.06;15727794;28;20305;-63
2021/12/14 08:21:23;;;;;;;1999.90;999.90;;;;;;;10.09;75.81;102133.16;15771400;28;20115;-64
2021/12/14 08:28:59;;;;;;;1999.90;999.90;;;;;;;9.88;76.80;102146.47;15745605;28;20049;-63
2021/12/14 08:36:40;;;;;;;1999.90;999.90;;;;;;;9.93;76.56;102156.75;15748366;28;20127;-63
2021/12/14 08:44:20;;;;;;;1999.90;999.90;;;;;;;9.70;76.69;102150.84;15761533;28;20078;-65
2021/12/14 08:51:54;;;;;;;1999.90;999.90;;;;;;;9.84;76.76;102154.59;15792998;28;20032;-65
2021/12/14 08:59:28;;;;;;;1999.90;999.90;;;;;;;9.82;76.63;102153.22;15759397;28;20037;-66
2021/12/14 09:07:06;;;;;;;1999.90;999.90;;;;;;;10.10;75.65;102159.91;15787886;28;20143;-63
2021/12/14 09:14:39;;;;;;;1999.90;999.90;;;;;;;9.95;76.29;102148.91;15780785;28;20267;-61
2021/12/14 09:22:16;;;;;;;;;;;;;;;10.18;75.22;102152.84;15778484;28;20048;-63
2021/12/14 09:29:50;;;;;;;1999.90;999.90;;;;;;;10.07;75.33;102146.56;15755424;28;19935;-63
2021/12/14 09:37:26;;;;;;;1999.90;999.90;;;;;;;10.20;74.83;102139.44;15749564;28;20043;-63
2021/12/14 09:45:05;;;;;;;1999.90;999.90;;;;;;;10.14;74.85;102124.72;15734231;28;20048;-62
2021/12/14 09:52:41;;;;;;;1999.90;999.90;;;;;;;9.92;75.26;102118.84;15750461;28;20097;-63
2021/12/14 10:00:18;;;;;;;1999.90;999.90;;;;;;;10.07;75.17;102121.47;15767643;28;20040;-63
2021/12/14 10:07:54;;;;;;;1999.90;999.90;;;;;;;10.18;73.94;102120.22;15760713;28;20048;-62
2021/12/14 10:15:32;;;;;;;1999.90;999.90;;;;;;;10.12;74.23;102111.09;15751101;28;20090;-64
2021/12/14 10:23:06;;;;;;;1999.90;999.90;;;;;;;10.08;74.91;102095.22;15746589;28;20063;-64
2021/12/14 10:30:45;;;;;;;1999.90;999.90;;;;;;;10.31;73.72;102105.56;15746324;28;20044;-63
2021/12/14 10:38:28;;;;;;;1999.90;999.90;;;;;;;10.38;73.30;102097.69;15757490;28;20044;-65
2021/12/14 10:46:05;;;;;;;1999.90;999.90;;;;;;;10.25;73.37;102101.19;15742992;28;20068;-64
2021/12/14 10:53:45;;;;;;;1999.90;999.90;;;;;;;10.45;72.65;102107.66;15741580;28;20036;-64
2021/12/14 11:01:25;;;;;;;1999.90;999.90;;;;;;;10.59;72.63;102095.44;15760914;28;20044;-60
2021/12/14 11:24:49;;;;;;;1999.90;999.90;;;;;;;10.98;72.54;102099.94;15788234;28;20045;-61
2021/12/14 11:32:24;;;;;;;1999.90;999.90;;;;;;;10.98;71.05;102083.19;15721670;28;20106;-60
2021/12/14 11:39:58;;;;;;;1999.90;999.90;;;;;;;10.88;71.36;102088.91;15722591;28;20048;-62
2021/12/14 11:47:46;;;;;;;1999.90;999.90;;;;;;;11.27;70.61;102086.63;15739653;28;20056;-62
2021/12/14 11:55:34;;;;;;;1999.90;999.90;;;;;;;11.37;69.72;102073.63;15721874;28;20501;-60
2021/12/14 12:03:37;;;;;;;1999.90;999.90;;;;;;;11.46;69.46;102066.16;15734662;28;20039;-63
2021/12/14 12:11:11;;;;;;;1999.90;999.90;;;;;;;11.47;69.46;102067.84;15773879;28;20139;-63
2021/12/14 12:19:07;;;;;;;1999.90;999.90;;;;;;;11.81;67.66;102062.75;15795435;28;20072;-64
2021/12/14 12:26:44;;;;;;;1999.90;999.90;;;;;;;11.72;68.27;102083.31;15753875;28;20404;-64
2021/12/14 12:34:16;;;;;;;1999.90;999.90;;;;;;;11.65;68.04;102066.94;15753362;28;20044;-64
2021/12/14 12:41:56;;;;;;;1999.90;999.90;;;;;;;11.77;69.08;102070.06;15769092;28;20052;-64
2021/12/14 12:49:33;;;;;;;1999.90;999.90;;;;;;;11.40;68.94;102085.00;15766963;28;20040;-64
2021/12/14 12:57:21;;;;;;;1999.90;999.90;;;;;;;11.76;68.00;102068.41;15789292;28;20123;-63
2021/12/14 13:04:57;;;;;;;1999.90;999.90;;;;;;;11.49;69.44;102073.97;15780013;28;20044;-63
2021/12/14 13:12:45;;;;;;;1999.90;999.90;;;;;;;11.88;67.79;102075.50;15752379;28;20049;-64
2021/12/14 13:20:18;;;;;;;1999.90;999.90;;;;;;;11.44;69.32;102077.66;15751505;28;20044;-64
2021/12/14 13:27:52;;;;;;;1999.90;999.90;;;;;;;11.61;68.99;102084.66;15776003;28;20055;-64
2021/12/14 13:35:28;;;;;;;1999.90;999.90;;;;;;;10.92;70.96;102098.34;15767931;28;20041;-65
2021/12/14 13:43:39;;;;;;;1999.90;999.90;;;;;;;11.32;71.02;102105.25;15734146;28;20102;-64
2021/12/14 13:51:15;;;;;;;1999.90;999.90;;;;;;;10.49;75.38;102105.91;15746704;28;20432;-64
2021/12/14 13:58:51;;;;;;;1999.90;999.90;;;;;;;10.33;77.39;102114.50;15778465;28;20075;-64
2021/12/14 14:06:25;;;;;;;1999.90;999.90;;;;;;;10.31;78.61;102121.47;15759185;28;20082;-66
2021/12/14 14:14:03;;;;;;;1999.90;999.90;;;;;;;10.59;78.28;102128.13;15742882;28;20517;-64
2021/12/14 14:21:35;;;;;;;1999.90;999.90;;;;;;;10.49;78.34;102131.03;15738876;28;20070;-65
2021/12/14 14:29:11;;;;;;;1999.90;999.90;;;;;;;10.54;78.89;102136.56;15781099;28;20052;-65
2021/12/14 14:36:45;;;;;;;1999.90;999.90;;;;;;;10.55;79.86;102141.84;15751420;28;20029;-64
2021/12/14 14:44:30;;;;;;;1999.90;999.90;;;;;;;10.73;78.83;102131.00;15781963;28;20489;-63
2021/12/14 14:52:07;;;;;;;1999.90;999.90;;;;;;;10.50;79.57;102136.31;15776143;28;20044;-64
2021/12/14 14:59:45;;;;;;;1999.90;999.90;;;;;;;10.51;79.34;102135.19;15749957;28;20059;-64
2021/12/14 15:07:17;;;;;;;1999.90;999.90;;;;;;;10.35;80.06;102145.72;15768936;28;20043;-64
2021/12/14 15:14:51;;;;;;;1999.90;999.90;;;;;;;10.27;80.24;102153.91;15767873;28;20047;-65
2021/12/14 15:22:27;;;;;;;1999.90;999.90;;;;;;;10.58;79.46;102162.75;15741420;28;20140;-65
2021/12/14 15:30:17;;;;;;;1999.90;999.90;;;;;;;10.66;78.83;102157.34;15759867;28;20083;-65
2021/12/14 15:37:58;;;;;;;1999.90;999.90;;;;;;;10.59;79.54;102145.69;15780999;28;20047;-64
2021/12/14 15:45:40;;;;;;;1999.90;999.90;;;;;;;10.61;79.33;102162.97;15729979;28;20055;-65
2021/12/14 15:53:24;;;;;;;1999.90;999.90;;;;;;;10.29;80.86;102173.97;15771872;28;20041;-64
2021/12/14 16:01:00;;;;;;;1999.90;999.90;;;;;;;10.27;80.48;102163.09;15809232;28;20041;-64
2021/12/14 16:08:35;;;;;;;1999.90;999.90;;;;;;;10.13;81.37;102182.47;15740929;28;20055;-65
2021/12/14 16:16:13;;;;;;;1999.90;999.90;;;;;;;9.95;82.34;102185.16;15762825;28;20413;-64
2021/12/14 16:23:46;;;;;;;1999.90;999.90;;;;;;;10.05;82.37;102197.06;15748468;28;20144;-65
2021/12/14 16:31:23;;;;;;;1999.90;999.90;;;;;;;10.27;81.52;102187.38;15756950;28;20044;-64
2021/12/14 16:39:01;;;;;;;1999.90;999.90;;;;;;;10.14;81.92;102194.47;15780552;28;20032;-65
2021/12/14 16:46:40;;;;;;;1999.90;999.90;;;;;;;10.61;80.58;102198.44;15753765;28;20047;-65
2021/12/14 16:54:15;;;;;;;1999.90;999.90;;;;;;;10.54;80.53;102198.81;15729802;28;20044;-65
2021/12/14 17:01:53;;;;;;;1999.90;999.90;;;;;;;10.35;81.15;102207.13;15747723;28;20064;-64
2021/12/14 17:09:26;;;;;;;1999.90;999.90;;;;;;;10.50;80.50;102211.69;15712989;28;20114;-64
2021/12/14 17:17:05;;;;;;;1999.90;999.90;;;;;;;10.54;80.21;102214.72;15712137;28;20044;-64
2021/12/14 17:24:42;;;;;;;1999.90;999.90;;;;;;;10.55;80.06;102208.84;15745177;28;20094;-63
2021/12/14 17:32:22;;;;;;;1999.90;999.90;;;;;;;10.65;79.88;102238.59;15744677;28;20051;-66
2021/12/14 17:40:00;;;;;;;1999.90;999.90;;;;;;;10.79;79.50;102235.91;15710000;28;20537;-65
2021/12/14 17:47:37;;;;;;;1999.90;999.90;;;;;;;10.65;79.71;102241.41;15762525;28;20040;-63
2021/12/14 17:55:14;;;;;;;1999.90;999.90;;;;;;;10.73;79.49;102240.72;15806432;28;20047;-65
2021/12/14 18:02:52;;;;;;;1999.90;999.90;;;;;;;10.63;79.63;102238.91;15788219;28;20037;-65
2021/12/14 18:10:29;;;;;;;1999.90;999.90;;;;;;;10.27;81.18;102248.78;15787113;28;20115;-66
2021/12/14 18:26:00;;;;;;;1999.90;999.90;;;;;;;10.63;80.29;102263.19;15786080;28;20044;-65
2021/12/14 18:33:37;;;;;;;1999.90;999.90;;;;;;;10.65;80.49;102255.34;15804383;28;20130;-66
2021/12/14 18:41:12;;;;;;;1999.90;999.90;;;;;;;10.19;81.95;102255.78;15767730;28;20089;-65
2021/12/14 18:56:43;;;;;;;1999.90;999.90;;;;;;;10.39;81.44;102263.16;15739329;28;20044;-63
2021/12/14 19:04:20;;;;;;;1999.90;999.90;;;;;;;10.26;81.74;102278.63;15739630;28;20463;-66
2021/12/14 19:11:58;;;;;;;1999.90;999.90;;;;;;;10.38;81.66;102278.22;15739076;28;20119;-66
2021/12/14 19:19:36;;;;;;;1999.90;999.90;;;;;;;10.47;81.38;102282.06;15721443;28;20334;-66
2021/12/14 19:27:11;;;;;;;1999.90;999.90;;;;;;;10.59;81.06;102292.81;15737683;28;20579;-66
2021/12/14 19:34:49;;;;;;;1999.90;999.90;;;;;;;10.26;82.59;102291.75;15737970;28;20489;-66
2021/12/14 19:42:27;;;;;;;1999.90;999.90;;;;;;;10.45;82.33;102303.03;15768442;28;20044;-62
2021/12/14 19:50:13;;;;;;;1999.90;999.90;;;;;;;10.44;82.82;102310.56;15781505;28;20110;-61
2021/12/14 19:57:53;;;;;;;1999.90;999.90;;;;;;;10.29;82.75;102321.84;15791793;28;20043;-62
2021/12/14 20:05:31;;;;;;;1999.90;999.90;;;;;;;10.44;82.41;102321.72;15738974;28;20127;-65
2021/12/14 20:13:09;;;;;;;1999.90;999.90;;;;;;;10.26;83.56;102319.66;15766442;28;20047;-60
2021/12/14 20:20:46;;;;;;;1999.90;999.90;;;;;;;10.29;83.37;102317.09;15769466;28;20035;-63
2021/12/14 20:28:22;;;;;;;1999.90;999.90;;;;;;;10.44;83.12;102316.16;15762679;28;20041;-66
2021/12/14 20:35:59;;;;;;;1999.90;999.90;;;;;;;10.19;84.92;102314.38;15784600;28;20070;-64
2021/12/14 20:43:43;;;;;;;1999.90;999.90;;;;;;;10.20;84.16;102318.81;15808432;28;20051;-71
2021/12/14 20:51:21;;;;;;;1999.90;999.90;;;;;;;10.30;84.49;102317.94;15767635;28;20044;-67
2021/12/14 20:58:56;;;;;;;1999.90;999.90;;;;;;;10.23;84.35;102323.88;15738671;28;20048;-62
2021/12/14 21:06:35;;;;;;;1999.90;999.90;;;;;;;10.36;84.00;102320.38;15768334;28;20044;-64
2021/12/14 21:14:11;;;;;;;1999.90;999.90;;;;;;;10.50;82.80;102308.53;15802754;28;20059;-63
2021/12/14 21:21:46;;;;;;;1999.90;999.90;;;;;;;10.47;83.19;102314.72;15806423;28;20042;-64
2021/12/14 21:29:22;;;;;;;1999.90;999.90;;;;;;;10.40;83.02;102310.28;15769229;28;20138;-64
2021/12/14 21:36:59;;;;;;;1999.90;999.90;;;;;;;10.36;83.48;102316.78;15774215;28;20048;-63
2021/12/14 21:44:59;;;;;;;1999.90;999.90;;;;;;;10.46;83.21;102322.25;15776554;28;20471;-61
2021/12/14 21:52:35;;;;;;;1999.90;999.90;;;;;;;10.67;82.90;102322.91;15752990;28;20083;-61
2021/12/14 22:00:12;;;;;;;1999.90;999.90;;;;;;;10.39;82.74;102327.34;15719186;28;20708;-61
2021/12/14 22:07:48;;;;;;;1999.90;999.90;;;;;;;10.71;82.24;102326.75;15827848;22;20529;-88
2021/12/14 22:15:25;;;;;;;1999.90;999.90;;;;;;;10.58;82.09;102328.28;15832300;28;20109;-83
2021/12/14 22:23:02;;;;;;;1999.90;999.90;;;;;;;10.61;82.59;102332.44;15788481;28;20481;-80
2021/12/14 22:30:35;;;;;;;1999.90;999.90;;;;;;;10.54;82.18;102327.22;15809046;22;20044;-60
2021/12/14 22:38:12;;;;;;;1999.90;999.90;;;;;;;10.66;81.20;102327.66;15772429;28;20098;-60
2021/12/14 22:45:46;;;;;;;1999.90;999.90;;;;;;;10.67;81.45;102337.69;15727607;28;20047;-60
2021/12/14 22:53:20;;;;;;;1999.90;999.90;;;;;;;10.70;81.28;102339.88;15734786;28;20044;-60
2021/12/14 23:01:05;;;;;;;1999.90;999.90;;;;;;;10.66;81.19;102349.16;15737201;28;20135;-57
2021/12/14 23:08:40;;;;;;;1999.90;999.90;;;;;;;10.69;80.76;102342.97;15718616;28;20389;-60
2021/12/14 23:16:14;;;;;;;1999.90;999.90;;;;;;;10.85;80.73;102340.88;15772768;28;20075;-60
2021/12/14 23:23:48;;;;;;;1999.90;999.90;;;;;;;10.84;80.32;102347.59;15752925;28;20135;-60
2021/12/14 23:31:21;;;;;;;1999.90;999.90;;;;;;;10.76;80.66;102353.81;15755855;28;20127;-60
2021/12/14 23:38:56;;;;;;;1999.90;999.90;;;;;;;10.87;80.23;102349.78;15795788;28;20056;-60
2021/12/14 23:54:23;;;;;;;1999.90;999.90;;;;;;;10.78;79.98;102341.22;15755772;28;20040;-60
